sensor_id;sensor_type;location;lat;lon;timestamp;P1;durP1;ratioP1;P2;durP2;ratioP2
36923;SDS011;22841;50.252;18.688;2023-03-15T00:00:52;4.38;;;3.60;;
36923;SDS011;22841;50.252;18.688;2023-03-15T00:03:20;3.35;;;3.05;;
36923;SDS011;22841;50.252;18.688;2023-03-15T00:05:48;3.50;;;3.20;;
36923;SDS011;22841;50.252;18.688;2023-03-15T00:08:16;7.22;;;4.70;;
36923;SDS011;22841;50.252;18.688;2023-03-15T00:10:44;4.65;;;2.90;;
36923;SDS011;22841;50.252;18.688;2023-03-15T00:13:11;3.40;;;2.50;;
36923;SDS011;22841;50.252;18.688;2023-03-15T00:15:45;2.42;;;2.25;;
36923;SDS011;22841;50.252;18.688;2023-03-15T00:18:14;2.80;;;2.60;;
36923;SDS011;22841;50.252;18.688;2023-03-15T00:20:41;8.88;;;3.67;;
36923;SDS011;22841;50.252;18.688;2023-03-15T00:23:08;5.43;;;3.40;;
36923;SDS011;22841;50.252;18.688;2023-03-15T00:25:34;5.43;;;3.58;;
36923;SDS011;22841;50.252;18.688;2023-03-15T00:28:00;3.97;;;3.50;;
36923;SDS011;22841;50.252;18.688;2023-03-15T00:30:27;4.57;;;3.28;;
36923;SDS011;22841;50.252;18.688;2023-03-15T00:32:53;5.05;;;3.80;;
36923;SDS011;22841;50.252;18.688;2023-03-15T00:35:20;4.53;;;3.28;;
36923;SDS011;22841;50.252;18.688;2023-03-15T00:37:48;4.53;;;3.10;;
36923;SDS011;22841;50.252;18.688;2023-03-15T00:40:19;3.47;;;3.17;;
36923;SDS011;22841;50.252;18.688;2023-03-15T00:42:45;4.25;;;3.42;;
36923;SDS011;22841;50.252;18.688;2023-03-15T00:45:17;3.30;;;2.90;;
36923;SDS011;22841;50.252;18.688;2023-03-15T00:47:47;5.55;;;3.50;;
36923;SDS011;22841;50.252;18.688;2023-03-15T00:50:14;4.28;;;3.70;;
36923;SDS011;22841;50.252;18.688;2023-03-15T00:52:40;6.47;;;3.47;;
36923;SDS011;22841;50.252;18.688;2023-03-15T00:55:11;4.68;;;3.60;;
36923;SDS011;22841;50.252;18.688;2023-03-15T00:57:39;7.32;;;3.72;;
36923;SDS011;22841;50.252;18.688;2023-03-15T01:00:11;5.70;;;4.13;;
36923;SDS011;22841;50.252;18.688;2023-03-15T01:02:39;8.52;;;4.50;;
36923;SDS011;22841;50.252;18.688;2023-03-15T01:05:06;8.07;;;4.50;;
36923;SDS011;22841;50.252;18.688;2023-03-15T01:07:34;7.43;;;4.10;;
36923;SDS011;22841;50.252;18.688;2023-03-15T01:10:01;12.82;;;5.20;;
36923;SDS011;22841;50.252;18.688;2023-03-15T01:12:29;7.78;;;4.05;;
36923;SDS011;22841;50.252;18.688;2023-03-15T01:14:57;8.05;;;4.75;;
36923;SDS011;22841;50.252;18.688;2023-03-15T01:17:24;10.85;;;5.50;;
36923;SDS011;22841;50.252;18.688;2023-03-15T01:19:50;15.10;;;4.85;;
36923;SDS011;22841;50.252;18.688;2023-03-15T01:22:17;7.15;;;4.03;;
36923;SDS011;22841;50.252;18.688;2023-03-15T01:24:43;9.90;;;4.28;;
36923;SDS011;22841;50.252;18.688;2023-03-15T01:27:09;17.40;;;4.35;;
36923;SDS011;22841;50.252;18.688;2023-03-15T01:29:35;10.70;;;4.43;;
36923;SDS011;22841;50.252;18.688;2023-03-15T01:32:01;11.20;;;4.57;;
36923;SDS011;22841;50.252;18.688;2023-03-15T01:34:27;9.30;;;4.03;;
36923;SDS011;22841;50.252;18.688;2023-03-15T01:36:54;8.55;;;4.07;;
36923;SDS011;22841;50.252;18.688;2023-03-15T01:39:20;11.27;;;4.93;;
36923;SDS011;22841;50.252;18.688;2023-03-15T01:41:46;11.10;;;4.68;;
36923;SDS011;22841;50.252;18.688;2023-03-15T01:44:13;9.25;;;5.35;;
36923;SDS011;22841;50.252;18.688;2023-03-15T01:46:40;16.77;;;4.85;;
36923;SDS011;22841;50.252;18.688;2023-03-15T01:49:08;12.77;;;5.43;;
36923;SDS011;22841;50.252;18.688;2023-03-15T01:51:48;16.08;;;4.75;;
36923;SDS011;22841;50.252;18.688;2023-03-15T02:00:13;12.82;;;4.38;;
36923;SDS011;22841;50.252;18.688;2023-03-15T02:02:49;14.77;;;4.63;;
36923;SDS011;22841;50.252;18.688;2023-03-15T02:05:46;7.25;;;4.82;;
36923;SDS011;22841;50.252;18.688;2023-03-15T02:08:19;7.95;;;4.50;;
36923;SDS011;22841;50.252;18.688;2023-03-15T02:10:49;13.05;;;5.10;;
36923;SDS011;22841;50.252;18.688;2023-03-15T02:13:18;9.82;;;5.90;;
36923;SDS011;22841;50.252;18.688;2023-03-15T02:15:48;12.55;;;5.18;;
36923;SDS011;22841;50.252;18.688;2023-03-15T02:18:15;7.50;;;4.97;;
36923;SDS011;22841;50.252;18.688;2023-03-15T02:20:44;12.02;;;6.25;;
36923;SDS011;22841;50.252;18.688;2023-03-15T02:23:19;10.95;;;5.25;;
36923;SDS011;22841;50.252;18.688;2023-03-15T02:28:20;11.38;;;5.88;;
36923;SDS011;22841;50.252;18.688;2023-03-15T02:30:47;13.18;;;5.53;;
36923;SDS011;22841;50.252;18.688;2023-03-15T02:36:06;15.13;;;5.50;;
36923;SDS011;22841;50.252;18.688;2023-03-15T02:38:52;11.40;;;6.60;;
36923;SDS011;22841;50.252;18.688;2023-03-15T02:41:24;20.58;;;7.22;;
36923;SDS011;22841;50.252;18.688;2023-03-15T02:43:52;12.18;;;6.78;;
36923;SDS011;22841;50.252;18.688;2023-03-15T02:46:20;15.07;;;5.78;;
36923;SDS011;22841;50.252;18.688;2023-03-15T02:48:47;14.05;;;6.07;;
36923;SDS011;22841;50.252;18.688;2023-03-15T02:51:23;13.60;;;6.13;;
36923;SDS011;22841;50.252;18.688;2023-03-15T02:53:52;25.00;;;7.35;;
36923;SDS011;22841;50.252;18.688;2023-03-15T02:56:18;10.95;;;6.57;;
36923;SDS011;22841;50.252;18.688;2023-03-15T02:58:45;21.55;;;8.27;;
36923;SDS011;22841;50.252;18.688;2023-03-15T03:01:11;13.32;;;6.80;;
36923;SDS011;22841;50.252;18.688;2023-03-15T03:03:41;18.10;;;6.47;;
36923;SDS011;22841;50.252;18.688;2023-03-15T03:06:09;10.77;;;6.32;;
36923;SDS011;22841;50.252;18.688;2023-03-15T03:08:36;15.05;;;6.97;;
36923;SDS011;22841;50.252;18.688;2023-03-15T03:11:03;20.38;;;5.88;;
36923;SDS011;22841;50.252;18.688;2023-03-15T03:13:30;16.55;;;6.40;;
36923;SDS011;22841;50.252;18.688;2023-03-15T03:15:56;19.05;;;6.82;;
36923;SDS011;22841;50.252;18.688;2023-03-15T03:18:25;19.50;;;6.72;;
36923;SDS011;22841;50.252;18.688;2023-03-15T03:20:55;16.55;;;7.93;;
36923;SDS011;22841;50.252;18.688;2023-03-15T03:23:23;15.32;;;7.03;;
36923;SDS011;22841;50.252;18.688;2023-03-15T03:25:54;14.15;;;6.53;;
36923;SDS011;22841;50.252;18.688;2023-03-15T03:28:21;15.20;;;6.63;;
36923;SDS011;22841;50.252;18.688;2023-03-15T03:30:49;18.40;;;6.55;;
36923;SDS011;22841;50.252;18.688;2023-03-15T03:33:16;14.70;;;6.22;;
36923;SDS011;22841;50.252;18.688;2023-03-15T03:35:42;15.07;;;6.78;;
36923;SDS011;22841;50.252;18.688;2023-03-15T03:38:09;19.48;;;6.50;;
36923;SDS011;22841;50.252;18.688;2023-03-15T03:40:36;14.02;;;6.30;;
36923;SDS011;22841;50.252;18.688;2023-03-15T03:43:03;15.50;;;6.78;;
36923;SDS011;22841;50.252;18.688;2023-03-15T03:45:30;14.20;;;7.38;;
36923;SDS011;22841;50.252;18.688;2023-03-15T03:47:56;18.17;;;7.18;;
36923;SDS011;22841;50.252;18.688;2023-03-15T03:50:22;19.42;;;7.18;;
36923;SDS011;22841;50.252;18.688;2023-03-15T03:52:48;20.80;;;7.85;;
36923;SDS011;22841;50.252;18.688;2023-03-15T03:55:14;18.13;;;7.55;;
36923;SDS011;22841;50.252;18.688;2023-03-15T03:57:41;14.93;;;6.70;;
36923;SDS011;22841;50.252;18.688;2023-03-15T04:00:10;19.77;;;8.43;;
36923;SDS011;22841;50.252;18.688;2023-03-15T04:02:39;19.55;;;8.20;;
36923;SDS011;22841;50.252;18.688;2023-03-15T04:05:08;19.33;;;7.85;;
36923;SDS011;22841;50.252;18.688;2023-03-15T04:07:36;16.65;;;7.80;;
36923;SDS011;22841;50.252;18.688;2023-03-15T04:10:02;18.27;;;7.32;;
36923;SDS011;22841;50.252;18.688;2023-03-15T04:12:29;18.88;;;8.40;;
36923;SDS011;22841;50.252;18.688;2023-03-15T04:14:55;18.50;;;8.25;;
36923;SDS011;22841;50.252;18.688;2023-03-15T04:17:22;14.45;;;7.25;;
36923;SDS011;22841;50.252;18.688;2023-03-15T04:19:48;14.70;;;6.57;;
36923;SDS011;22841;50.252;18.688;2023-03-15T04:22:14;27.02;;;7.60;;
36923;SDS011;22841;50.252;18.688;2023-03-15T04:24:40;15.68;;;6.22;;
36923;SDS011;22841;50.252;18.688;2023-03-15T04:27:07;13.00;;;6.22;;
36923;SDS011;22841;50.252;18.688;2023-03-15T04:29:34;14.88;;;6.75;;
36923;SDS011;22841;50.252;18.688;2023-03-15T04:32:00;23.65;;;8.38;;
36923;SDS011;22841;50.252;18.688;2023-03-15T04:34:27;18.15;;;8.13;;
36923;SDS011;22841;50.252;18.688;2023-03-15T04:36:54;16.38;;;7.10;;
36923;SDS011;22841;50.252;18.688;2023-03-15T04:39:20;20.58;;;6.68;;
36923;SDS011;22841;50.252;18.688;2023-03-15T04:41:46;20.38;;;7.38;;
36923;SDS011;22841;50.252;18.688;2023-03-15T04:44:12;15.20;;;6.53;;
36923;SDS011;22841;50.252;18.688;2023-03-15T04:46:42;19.85;;;6.70;;
36923;SDS011;22841;50.252;18.688;2023-03-15T04:49:08;20.13;;;7.00;;
36923;SDS011;22841;50.252;18.688;2023-03-15T04:51:34;21.40;;;6.18;;
36923;SDS011;22841;50.252;18.688;2023-03-15T04:54:00;12.88;;;6.20;;
36923;SDS011;22841;50.252;18.688;2023-03-15T04:56:27;14.73;;;6.00;;
36923;SDS011;22841;50.252;18.688;2023-03-15T04:58:54;12.52;;;5.53;;
36923;SDS011;22841;50.252;18.688;2023-03-15T05:01:22;29.33;;;6.55;;
36923;SDS011;22841;50.252;18.688;2023-03-15T05:03:52;12.88;;;4.93;;
36923;SDS011;22841;50.252;18.688;2023-03-15T05:06:18;13.88;;;4.57;;
36923;SDS011;22841;50.252;18.688;2023-03-15T05:08:45;18.88;;;5.20;;
36923;SDS011;22841;50.252;18.688;2023-03-15T05:11:11;16.15;;;5.40;;
36923;SDS011;22841;50.252;18.688;2023-03-15T05:13:37;18.67;;;4.80;;
36923;SDS011;22841;50.252;18.688;2023-03-15T05:16:04;14.30;;;4.15;;
36923;SDS011;22841;50.252;18.688;2023-03-15T05:18:30;17.17;;;4.93;;
36923;SDS011;22841;50.252;18.688;2023-03-15T05:20:56;15.10;;;3.95;;
36923;SDS011;22841;50.252;18.688;2023-03-15T05:23:23;21.50;;;4.68;;
36923;SDS011;22841;50.252;18.688;2023-03-15T05:25:50;13.68;;;4.65;;
36923;SDS011;22841;50.252;18.688;2023-03-15T05:28:20;9.73;;;3.83;;
36923;SDS011;22841;50.252;18.688;2023-03-15T05:30:48;14.65;;;3.80;;
36923;SDS011;22841;50.252;18.688;2023-03-15T05:33:14;17.15;;;4.25;;
36923;SDS011;22841;50.252;18.688;2023-03-15T05:35:41;21.63;;;5.47;;
36923;SDS011;22841;50.252;18.688;2023-03-15T05:38:09;9.60;;;4.70;;
36923;SDS011;22841;50.252;18.688;2023-03-15T05:40:42;18.35;;;5.18;;
36923;SDS011;22841;50.252;18.688;2023-03-15T05:43:09;20.08;;;4.25;;
36923;SDS011;22841;50.252;18.688;2023-03-15T05:45:36;22.85;;;6.30;;
36923;SDS011;22841;50.252;18.688;2023-03-15T05:48:02;9.73;;;3.33;;
36923;SDS011;22841;50.252;18.688;2023-03-15T05:50:29;20.63;;;4.18;;
36923;SDS011;22841;50.252;18.688;2023-03-15T05:52:56;16.63;;;4.82;;
36923;SDS011;22841;50.252;18.688;2023-03-15T05:55:22;16.88;;;5.35;;
36923;SDS011;22841;50.252;18.688;2023-03-15T05:57:49;19.23;;;5.10;;
36923;SDS011;22841;50.252;18.688;2023-03-15T06:00:15;24.40;;;7.10;;
36923;SDS011;22841;50.252;18.688;2023-03-15T06:02:43;17.27;;;4.47;;
36923;SDS011;22841;50.252;18.688;2023-03-15T06:05:09;16.95;;;4.60;;
36923;SDS011;22841;50.252;18.688;2023-03-15T06:07:35;14.15;;;3.60;;
36923;SDS011;22841;50.252;18.688;2023-03-15T06:10:02;20.13;;;4.95;;
36923;SDS011;22841;50.252;18.688;2023-03-15T06:12:28;10.80;;;4.18;;
36923;SDS011;22841;50.252;18.688;2023-03-15T06:14:54;10.30;;;4.35;;
36923;SDS011;22841;50.252;18.688;2023-03-15T06:17:21;14.90;;;4.88;;
36923;SDS011;22841;50.252;18.688;2023-03-15T06:19:47;25.85;;;6.22;;
36923;SDS011;22841;50.252;18.688;2023-03-15T06:22:13;19.60;;;4.63;;
36923;SDS011;22841;50.252;18.688;2023-03-15T06:24:39;16.48;;;5.47;;
36923;SDS011;22841;50.252;18.688;2023-03-15T06:27:05;19.52;;;5.05;;
36923;SDS011;22841;50.252;18.688;2023-03-15T06:29:31;11.70;;;3.45;;
36923;SDS011;22841;50.252;18.688;2023-03-15T06:31:57;20.08;;;3.78;;
36923;SDS011;22841;50.252;18.688;2023-03-15T06:34:29;22.55;;;3.72;;
36923;SDS011;22841;50.252;18.688;2023-03-15T06:36:55;22.53;;;4.20;;
36923;SDS011;22841;50.252;18.688;2023-03-15T06:39:21;20.27;;;4.15;;
36923;SDS011;22841;50.252;18.688;2023-03-15T06:41:48;12.57;;;4.78;;
36923;SDS011;22841;50.252;18.688;2023-03-15T06:44:17;10.43;;;4.57;;
36923;SDS011;22841;50.252;18.688;2023-03-15T06:46:44;20.02;;;3.60;;
36923;SDS011;22841;50.252;18.688;2023-03-15T06:49:10;8.40;;;3.33;;
36923;SDS011;22841;50.252;18.688;2023-03-15T06:51:36;14.25;;;3.85;;
36923;SDS011;22841;50.252;18.688;2023-03-15T06:54:03;11.48;;;3.05;;
36923;SDS011;22841;50.252;18.688;2023-03-15T06:56:29;13.55;;;3.80;;
36923;SDS011;22841;50.252;18.688;2023-03-15T06:58:55;21.58;;;3.60;;
36923;SDS011;22841;50.252;18.688;2023-03-15T07:01:21;14.35;;;3.83;;
36923;SDS011;22841;50.252;18.688;2023-03-15T07:03:47;12.15;;;3.47;;
36923;SDS011;22841;50.252;18.688;2023-03-15T07:06:13;13.93;;;3.40;;
36923;SDS011;22841;50.252;18.688;2023-03-15T07:08:39;13.20;;;4.10;;
36923;SDS011;22841;50.252;18.688;2023-03-15T07:11:05;16.65;;;3.17;;
36923;SDS011;22841;50.252;18.688;2023-03-15T07:13:32;19.42;;;3.45;;
36923;SDS011;22841;50.252;18.688;2023-03-15T07:15:58;16.02;;;3.92;;
36923;SDS011;22841;50.252;18.688;2023-03-15T07:18:24;17.35;;;3.72;;
36923;SDS011;22841;50.252;18.688;2023-03-15T07:20:56;15.25;;;3.60;;
36923;SDS011;22841;50.252;18.688;2023-03-15T07:23:24;32.70;;;6.25;;
36923;SDS011;22841;50.252;18.688;2023-03-15T07:25:50;14.00;;;5.10;;
36923;SDS011;22841;50.252;18.688;2023-03-15T07:28:16;37.05;;;7.20;;
36923;SDS011;22841;50.252;18.688;2023-03-15T07:30:50;25.48;;;5.32;;
36923;SDS011;22841;50.252;18.688;2023-03-15T07:33:17;20.20;;;4.63;;
36923;SDS011;22841;50.252;18.688;2023-03-15T07:35:47;13.60;;;3.97;;
36923;SDS011;22841;50.252;18.688;2023-03-15T07:38:14;11.13;;;3.72;;
36923;SDS011;22841;50.252;18.688;2023-03-15T07:40:40;33.60;;;5.57;;
36923;SDS011;22841;50.252;18.688;2023-03-15T07:43:06;16.00;;;3.75;;
36923;SDS011;22841;50.252;18.688;2023-03-15T07:45:32;12.57;;;4.32;;
36923;SDS011;22841;50.252;18.688;2023-03-15T07:47:59;22.05;;;4.68;;
36923;SDS011;22841;50.252;18.688;2023-03-15T07:50:26;14.60;;;4.43;;
36923;SDS011;22841;50.252;18.688;2023-03-15T07:52:53;18.55;;;3.97;;
36923;SDS011;22841;50.252;18.688;2023-03-15T07:55:19;17.30;;;3.65;;
36923;SDS011;22841;50.252;18.688;2023-03-15T07:57:45;22.55;;;5.68;;
36923;SDS011;22841;50.252;18.688;2023-03-15T08:00:11;9.60;;;4.00;;
36923;SDS011;22841;50.252;18.688;2023-03-15T08:02:39;21.52;;;6.28;;
36923;SDS011;22841;50.252;18.688;2023-03-15T08:05:05;23.95;;;7.22;;
36923;SDS011;22841;50.252;18.688;2023-03-15T08:07:31;21.90;;;6.30;;
36923;SDS011;22841;50.252;18.688;2023-03-15T08:09:57;17.45;;;7.00;;
36923;SDS011;22841;50.252;18.688;2023-03-15T08:12:24;18.23;;;4.90;;
36923;SDS011;22841;50.252;18.688;2023-03-15T08:14:50;24.88;;;6.18;;
36923;SDS011;22841;50.252;18.688;2023-03-15T08:17:17;13.10;;;6.03;;
36923;SDS011;22841;50.252;18.688;2023-03-15T08:19:43;23.40;;;6.75;;
36923;SDS011;22841;50.252;18.688;2023-03-15T08:22:09;13.40;;;5.47;;
36923;SDS011;22841;50.252;18.688;2023-03-15T08:24:35;16.02;;;5.10;;
36923;SDS011;22841;50.252;18.688;2023-03-15T08:27:02;16.25;;;5.40;;
36923;SDS011;22841;50.252;18.688;2023-03-15T08:29:29;20.50;;;5.90;;
36923;SDS011;22841;50.252;18.688;2023-03-15T08:31:56;19.70;;;5.97;;
36923;SDS011;22841;50.252;18.688;2023-03-15T08:34:22;13.90;;;6.03;;
36923;SDS011;22841;50.252;18.688;2023-03-15T08:36:49;11.30;;;4.63;;
36923;SDS011;22841;50.252;18.688;2023-03-15T08:39:15;18.65;;;4.40;;
36923;SDS011;22841;50.252;18.688;2023-03-15T08:41:42;14.25;;;4.63;;
36923;SDS011;22841;50.252;18.688;2023-03-15T08:44:09;10.02;;;4.28;;
36923;SDS011;22841;50.252;18.688;2023-03-15T08:46:36;20.23;;;4.88;;
36923;SDS011;22841;50.252;18.688;2023-03-15T08:49:02;16.73;;;6.15;;
36923;SDS011;22841;50.252;18.688;2023-03-15T08:51:28;12.02;;;4.75;;
36923;SDS011;22841;50.252;18.688;2023-03-15T08:53:55;17.30;;;4.35;;
36923;SDS011;22841;50.252;18.688;2023-03-15T08:56:21;15.57;;;4.25;;
36923;SDS011;22841;50.252;18.688;2023-03-15T08:58:47;16.02;;;4.70;;
36923;SDS011;22841;50.252;18.688;2023-03-15T09:01:14;15.25;;;3.83;;
36923;SDS011;22841;50.252;18.688;2023-03-15T09:03:40;10.80;;;4.22;;
36923;SDS011;22841;50.252;18.688;2023-03-15T09:06:07;17.52;;;4.88;;
36923;SDS011;22841;50.252;18.688;2023-03-15T09:08:34;13.35;;;3.45;;
36923;SDS011;22841;50.252;18.688;2023-03-15T09:11:00;15.00;;;4.32;;
36923;SDS011;22841;50.252;18.688;2023-03-15T09:13:27;17.05;;;4.15;;
36923;SDS011;22841;50.252;18.688;2023-03-15T09:15:54;15.20;;;4.22;;
36923;SDS011;22841;50.252;18.688;2023-03-15T09:18:21;8.02;;;3.70;;
36923;SDS011;22841;50.252;18.688;2023-03-15T09:20:48;7.75;;;3.45;;
36923;SDS011;22841;50.252;18.688;2023-03-15T09:23:14;9.38;;;3.95;;
36923;SDS011;22841;50.252;18.688;2023-03-15T09:25:40;13.77;;;4.57;;
36923;SDS011;22841;50.252;18.688;2023-03-15T09:28:08;21.70;;;5.88;;
36923;SDS011;22841;50.252;18.688;2023-03-15T09:30:36;13.10;;;4.95;;
36923;SDS011;22841;50.252;18.688;2023-03-15T09:33:03;14.10;;;4.22;;
36923;SDS011;22841;50.252;18.688;2023-03-15T09:35:29;22.42;;;6.68;;
36923;SDS011;22841;50.252;18.688;2023-03-15T09:37:55;11.15;;;3.20;;
36923;SDS011;22841;50.252;18.688;2023-03-15T09:40:26;12.10;;;3.60;;
36923;SDS011;22841;50.252;18.688;2023-03-15T09:48:24;14.02;;;3.25;;
36923;SDS011;22841;50.252;18.688;2023-03-15T09:53:38;13.20;;;3.58;;
36923;SDS011;22841;50.252;18.688;2023-03-15T09:56:20;14.35;;;3.45;;
36923;SDS011;22841;50.252;18.688;2023-03-15T09:58:50;11.60;;;3.03;;
36923;SDS011;22841;50.252;18.688;2023-03-15T10:01:18;9.52;;;3.03;;
36923;SDS011;22841;50.252;18.688;2023-03-15T10:03:50;17.73;;;3.50;;
36923;SDS011;22841;50.252;18.688;2023-03-15T10:06:19;11.32;;;2.90;;
36923;SDS011;22841;50.252;18.688;2023-03-15T10:09:00;11.23;;;3.03;;
36923;SDS011;22841;50.252;18.688;2023-03-15T10:17:20;8.80;;;3.03;;
36923;SDS011;22841;50.252;18.688;2023-03-15T10:20:11;10.75;;;2.78;;
36923;SDS011;22841;50.252;18.688;2023-03-15T10:25:25;14.48;;;3.65;;
36923;SDS011;22841;50.252;18.688;2023-03-15T10:28:10;15.13;;;3.25;;
36923;SDS011;22841;50.252;18.688;2023-03-15T10:30:39;13.63;;;2.80;;
36923;SDS011;22841;50.252;18.688;2023-03-15T10:33:17;11.68;;;3.28;;
36923;SDS011;22841;50.252;18.688;2023-03-15T10:35:50;10.20;;;3.00;;
36923;SDS011;22841;50.252;18.688;2023-03-15T10:38:18;10.18;;;3.53;;
36923;SDS011;22841;50.252;18.688;2023-03-15T10:40:47;18.23;;;3.17;;
36923;SDS011;22841;50.252;18.688;2023-03-15T10:43:16;15.95;;;3.50;;
36923;SDS011;22841;50.252;18.688;2023-03-15T10:46:03;15.52;;;5.15;;
36923;SDS011;22841;50.252;18.688;2023-03-15T10:48:32;13.85;;;2.70;;
36923;SDS011;22841;50.252;18.688;2023-03-15T10:51:06;12.05;;;2.72;;
36923;SDS011;22841;50.252;18.688;2023-03-15T10:54:01;11.90;;;3.25;;
36923;SDS011;22841;50.252;18.688;2023-03-15T10:56:33;8.02;;;2.92;;
36923;SDS011;22841;50.252;18.688;2023-03-15T10:59:02;6.88;;;2.83;;
36923;SDS011;22841;50.252;18.688;2023-03-15T11:01:39;9.23;;;2.88;;
36923;SDS011;22841;50.252;18.688;2023-03-15T11:06:36;13.07;;;4.95;;
36923;SDS011;22841;50.252;18.688;2023-03-15T11:09:11;18.77;;;7.38;;
36923;SDS011;22841;50.252;18.688;2023-03-15T11:14:25;14.45;;;4.82;;
36923;SDS011;22841;50.252;18.688;2023-03-15T11:17:16;15.70;;;4.30;;
36923;SDS011;22841;50.252;18.688;2023-03-15T11:19:57;9.48;;;3.30;;
36923;SDS011;22841;50.252;18.688;2023-03-15T11:22:38;10.05;;;3.38;;
36923;SDS011;22841;50.252;18.688;2023-03-15T11:25:10;18.45;;;4.50;;
36923;SDS011;22841;50.252;18.688;2023-03-15T11:27:38;10.27;;;3.53;;
36923;SDS011;22841;50.252;18.688;2023-03-15T11:30:14;9.70;;;3.42;;
36923;SDS011;22841;50.252;18.688;2023-03-15T11:32:42;12.20;;;3.03;;
36923;SDS011;22841;50.252;18.688;2023-03-15T11:35:20;13.00;;;3.05;;
36923;SDS011;22841;50.252;18.688;2023-03-15T11:40:21;13.27;;;3.28;;
36923;SDS011;22841;50.252;18.688;2023-03-15T11:45:38;11.23;;;4.35;;
36923;SDS011;22841;50.252;18.688;2023-03-15T11:51:14;11.20;;;2.80;;
36923;SDS011;22841;50.252;18.688;2023-03-15T12:04:48;10.60;;;3.97;;
36923;SDS011;22841;50.252;18.688;2023-03-15T12:09:47;11.50;;;3.63;;
36923;SDS011;22841;50.252;18.688;2023-03-15T12:12:46;20.85;;;5.75;;
36923;SDS011;22841;50.252;18.688;2023-03-15T12:17:53;10.93;;;4.55;;
36923;SDS011;22841;50.252;18.688;2023-03-15T12:20:37;16.73;;;3.60;;
36923;SDS011;22841;50.252;18.688;2023-03-15T12:25:55;12.35;;;4.43;;
36923;SDS011;22841;50.252;18.688;2023-03-15T12:28:39;8.95;;;3.33;;
36923;SDS011;22841;50.252;18.688;2023-03-15T12:31:13;11.43;;;3.75;;
36923;SDS011;22841;50.252;18.688;2023-03-15T12:33:47;15.73;;;4.47;;
36923;SDS011;22841;50.252;18.688;2023-03-15T12:36:25;15.90;;;4.07;;
36923;SDS011;22841;50.252;18.688;2023-03-15T12:41:44;13.30;;;4.53;;
36923;SDS011;22841;50.252;18.688;2023-03-15T12:46:57;16.30;;;4.10;;
36923;SDS011;22841;50.252;18.688;2023-03-15T12:49:35;12.35;;;4.13;;
36923;SDS011;22841;50.252;18.688;2023-03-15T12:54:43;12.68;;;3.83;;
36923;SDS011;22841;50.252;18.688;2023-03-15T12:57:14;17.80;;;4.07;;
36923;SDS011;22841;50.252;18.688;2023-03-15T13:00:17;16.63;;;5.03;;
36923;SDS011;22841;50.252;18.688;2023-03-15T13:08:49;8.57;;;4.70;;
36923;SDS011;22841;50.252;18.688;2023-03-15T13:11:49;13.23;;;3.67;;
36923;SDS011;22841;50.252;18.688;2023-03-15T13:17:09;17.50;;;4.55;;
36923;SDS011;22841;50.252;18.688;2023-03-15T13:19:42;16.98;;;4.72;;
36923;SDS011;22841;50.252;18.688;2023-03-15T13:22:13;19.25;;;5.38;;
36923;SDS011;22841;50.252;18.688;2023-03-15T13:25:11;13.88;;;5.15;;
36923;SDS011;22841;50.252;18.688;2023-03-15T13:27:50;16.23;;;4.15;;
36923;SDS011;22841;50.252;18.688;2023-03-15T13:30:31;14.75;;;3.70;;
36923;SDS011;22841;50.252;18.688;2023-03-15T13:33:40;14.23;;;4.65;;
36923;SDS011;22841;50.252;18.688;2023-03-15T13:36:02;7.40;;;3.33;;
36923;SDS011;22841;50.252;18.688;2023-03-15T13:41:34;11.23;;;3.80;;
36923;SDS011;22841;50.252;18.688;2023-03-15T13:44:04;10.98;;;3.47;;
36923;SDS011;22841;50.252;18.688;2023-03-15T13:46:42;15.55;;;3.78;;
36923;SDS011;22841;50.252;18.688;2023-03-15T13:49:10;13.13;;;3.70;;
36923;SDS011;22841;50.252;18.688;2023-03-15T13:51:37;10.77;;;3.42;;
36923;SDS011;22841;50.252;18.688;2023-03-15T13:59:34;9.40;;;3.50;;
36923;SDS011;22841;50.252;18.688;2023-03-15T14:02:11;13.00;;;2.47;;
36923;SDS011;22841;50.252;18.688;2023-03-15T14:04:41;10.93;;;2.83;;
36923;SDS011;22841;50.252;18.688;2023-03-15T14:09:46;8.98;;;2.90;;
36923;SDS011;22841;50.252;18.688;2023-03-15T14:12:17;12.48;;;3.25;;
36923;SDS011;22841;50.252;18.688;2023-03-15T14:14:51;12.38;;;3.60;;
36923;SDS011;22841;50.252;18.688;2023-03-15T14:17:25;9.85;;;3.03;;
36923;SDS011;22841;50.252;18.688;2023-03-15T14:20:02;11.38;;;3.15;;
36923;SDS011;22841;50.252;18.688;2023-03-15T14:22:34;11.95;;;4.53;;
36923;SDS011;22841;50.252;18.688;2023-03-15T14:25:00;11.60;;;2.90;;
36923;SDS011;22841;50.252;18.688;2023-03-15T14:27:28;8.80;;;2.72;;
36923;SDS011;22841;50.252;18.688;2023-03-15T14:29:57;18.92;;;6.90;;
36923;SDS011;22841;50.252;18.688;2023-03-15T14:32:26;21.85;;;7.45;;
36923;SDS011;22841;50.252;18.688;2023-03-15T14:35:17;15.82;;;5.97;;
36923;SDS011;22841;50.252;18.688;2023-03-15T14:37:43;23.95;;;9.32;;
36923;SDS011;22841;50.252;18.688;2023-03-15T14:42:50;17.50;;;7.07;;
36923;SDS011;22841;50.252;18.688;2023-03-15T14:45:16;33.63;;;11.13;;
36923;SDS011;22841;50.252;18.688;2023-03-15T14:47:45;24.13;;;8.85;;
36923;SDS011;22841;50.252;18.688;2023-03-15T14:50:14;19.23;;;8.63;;
36923;SDS011;22841;50.252;18.688;2023-03-15T14:52:44;27.13;;;17.50;;
36923;SDS011;22841;50.252;18.688;2023-03-15T14:55:12;15.18;;;9.45;;
36923;SDS011;22841;50.252;18.688;2023-03-15T14:57:40;20.25;;;9.68;;
36923;SDS011;22841;50.252;18.688;2023-03-15T15:00:09;20.60;;;6.82;;
36923;SDS011;22841;50.252;18.688;2023-03-15T15:02:47;17.52;;;6.20;;
36923;SDS011;22841;50.252;18.688;2023-03-15T15:05:28;15.85;;;4.95;;
36923;SDS011;22841;50.252;18.688;2023-03-15T15:10:30;16.23;;;4.18;;
36923;SDS011;22841;50.252;18.688;2023-03-15T15:12:59;14.27;;;4.82;;
36923;SDS011;22841;50.252;18.688;2023-03-15T15:15:25;10.05;;;3.67;;
36923;SDS011;22841;50.252;18.688;2023-03-15T15:17:51;11.65;;;4.28;;
36923;SDS011;22841;50.252;18.688;2023-03-15T15:20:18;15.48;;;5.13;;
36923;SDS011;22841;50.252;18.688;2023-03-15T15:22:44;25.77;;;8.45;;
36923;SDS011;22841;50.252;18.688;2023-03-15T15:25:15;32.63;;;10.00;;
36923;SDS011;22841;50.252;18.688;2023-03-15T15:27:47;20.00;;;6.78;;
36923;SDS011;22841;50.252;18.688;2023-03-15T15:30:19;22.55;;;6.55;;
36923;SDS011;22841;50.252;18.688;2023-03-15T15:32:47;38.20;;;15.05;;
36923;SDS011;22841;50.252;18.688;2023-03-15T15:35:15;40.05;;;12.75;;
36923;SDS011;22841;50.252;18.688;2023-03-15T15:37:43;58.95;;;15.77;;
36923;SDS011;22841;50.252;18.688;2023-03-15T15:40:22;36.42;;;10.15;;
36923;SDS011;22841;50.252;18.688;2023-03-15T15:42:51;36.33;;;8.77;;
36923;SDS011;22841;50.252;18.688;2023-03-15T15:45:17;19.38;;;6.05;;
36923;SDS011;22841;50.252;18.688;2023-03-15T15:47:44;33.38;;;11.10;;
36923;SDS011;22841;50.252;18.688;2023-03-15T15:50:12;98.15;;;36.65;;
36923;SDS011;22841;50.252;18.688;2023-03-15T15:52:40;103.80;;;40.75;;
36923;SDS011;22841;50.252;18.688;2023-03-15T15:55:12;53.85;;;18.58;;
36923;SDS011;22841;50.252;18.688;2023-03-15T15:57:41;25.33;;;7.95;;
36923;SDS011;22841;50.252;18.688;2023-03-15T16:00:12;59.97;;;20.27;;
36923;SDS011;22841;50.252;18.688;2023-03-15T16:02:41;66.95;;;26.92;;
36923;SDS011;22841;50.252;18.688;2023-03-15T16:05:07;72.85;;;23.02;;
36923;SDS011;22841;50.252;18.688;2023-03-15T16:07:34;43.45;;;14.65;;
36923;SDS011;22841;50.252;18.688;2023-03-15T16:10:05;37.63;;;11.80;;